Time;durP1;ratioP1;P1;durP2;ratioP2;P2;SDS_P1;SDS_P2;PMS_P1;PMS_P2;Temp;Humidity;BMP_temperature;BMP_pressure;BME280_temperature;BME280_humidity;BME280_pressure;Samples;Min_cycle;Max_cycle;Signal;HPM_P1;HPM_P2
2023/01/11 00:01:51;;;;;;;5.88;4.82;;;8.30;99.90;;;;;;5023130;28;20141;-95
2023/01/11 00:04:18;;;;;;;5.25;4.75;;;8.40;99.90;;;;;;5004299;28;20052;-93
2023/01/11 00:06:44;;;;;;;6.85;4.97;;;8.40;99.90;;;;;;4990747;28;20102;-95
2023/01/11 00:09:11;;;;;;;5.68;5.00;;;9.30;99.90;;;;;;4999413;28;20046;-94
2023/01/11 00:11:37;;;;;;;6.07;5.40;;;7.80;99.90;;;;;;5000689;28;20049;-94
2023/01/11 00:14:03;;;;;;;6.70;5.13;;;8.50;99.90;;;;;;5001637;28;20362;-94
2023/01/11 00:16:28;;;;;;;6.05;5.28;;;8.40;99.90;;;;;;5000950;28;20042;-94
2023/01/11 00:18:57;;;;;;;6.03;5.38;;;8.80;99.90;;;;;;5016396;28;20114;-95
2023/01/11 00:21:22;;;;;;;5.78;5.20;;;8.80;99.90;;;;;;5018740;28;20089;-95
2023/01/11 00:23:54;;;;;;;6.07;5.47;;;8.40;99.90;;;;;;5007977;28;20043;-94
2023/01/11 00:26:19;;;;;;;5.75;4.85;;;9.20;99.90;;;;;;4997968;28;20042;-94
2023/01/11 00:28:48;;;;;;;5.05;4.55;;;9.10;99.90;;;;;;4999240;28;20082;-93
2023/01/11 00:31:14;;;;;;;5.72;5.13;;;8.60;99.90;;;;;;5000651;28;20053;-94
2023/01/11 00:33:45;;;;;;;5.60;5.07;;;9.30;99.90;;;;;;5014633;28;20050;-95
2023/01/11 00:36:11;;;;;;;7.25;5.20;;;8.30;99.90;;;;;;4996324;28;20056;-94
2023/01/11 00:38:54;;;;;;;5.72;5.03;;;9.00;99.90;;;;;;5000205;28;20128;-95
2023/01/11 00:49:41;;;;;;;6.85;5.38;;;8.70;99.90;;;;;;5016213;28;20081;-94
2023/01/11 00:52:08;;;;;;;6.90;5.20;;;8.80;99.90;;;;;;5012713;28;20052;-95
2023/01/11 00:54:35;;;;;;;7.10;6.00;;;8.70;99.90;;;;;;5012781;28;20164;-95
2023/01/11 00:57:01;;;;;;;5.70;4.95;;;9.60;99.90;;;;;;5011707;28;20065;-94
2023/01/11 00:59:26;;;;;;;5.82;4.93;;;8.70;99.90;;;;;;5014063;28;20156;-94
2023/01/11 01:01:52;;;;;;;5.07;4.47;;;8.80;99.90;;;;;;5015953;28;20159;-95
2023/01/11 01:04:18;;;;;;;5.80;5.20;;;8.80;99.90;;;;;;5007146;28;20056;-94
2023/01/11 01:06:43;;;;;;;5.38;4.88;;;8.80;99.90;;;;;;5012225;28;20692;-94
2023/01/11 01:09:12;;;;;;;7.28;5.57;;;9.20;99.90;;;;;;5011912;28;20556;-95
2023/01/11 01:11:38;;;;;;;5.75;4.97;;;9.20;99.90;;;;;;5010995;28;20046;-94
2023/01/11 01:16:56;;;;;;;6.13;5.22;;;8.90;99.90;;;;;;5013530;28;20069;-93
2023/01/11 01:19:22;;;;;;;5.57;5.07;;;8.90;99.90;;;;;;5028452;28;20103;-94
2023/01/11 01:21:49;;;;;;;6.63;5.43;;;8.90;99.90;;;;;;5010569;28;20045;-93
2023/01/11 01:24:15;;;;;;;6.13;5.13;;;8.90;99.90;;;;;;5012009;28;20084;-94
2023/01/11 01:26:40;;;;;;;6.25;5.53;;;9.00;99.90;;;;;;5013507;28;20097;-91
2023/01/11 01:29:06;;;;;;;5.53;4.95;;;9.00;99.90;;;;;;5012776;28;20058;-95
2023/01/11 01:31:35;;;;;;;7.50;5.22;;;9.00;99.90;;;;;;5005773;28;20081;-94
2023/01/11 01:34:01;;;;;;;6.95;5.80;;;9.30;99.90;;;;;;5027897;28;20100;-94
2023/01/11 01:36:26;;;;;;;7.05;5.57;;;9.00;99.90;;;;;;4995506;28;20038;-94
2023/01/11 01:38:55;;;;;;;6.40;5.75;;;9.00;99.90;;;;;;5012082;28;20046;-95
2023/01/11 01:41:21;;;;;;;7.05;5.50;;;8.40;99.90;;;;;;5011873;28;20055;-92
2023/01/11 01:43:48;;;;;;;6.40;5.38;;;9.10;99.90;;;;;;5027894;28;20408;-93
2023/01/11 01:46:15;;;;;;;8.80;5.53;;;9.10;99.90;;;;;;5013851;28;20038;-94
2023/01/11 01:48:45;;;;;;;7.55;5.50;;;9.10;99.90;;;;;;5027318;28;20256;-94
2023/01/11 01:51:16;;;;;;;6.25;5.28;;;9.70;99.90;;;;;;5032077;28;20045;-93
2023/01/11 01:53:46;;;;;;;6.80;5.35;;;9.20;99.90;;;;;;5014015;28;20049;-93
2023/01/11 01:56:16;;;;;;;6.68;5.28;;;9.20;99.90;;;;;;5011198;28;20042;-94
2023/01/11 01:58:53;;;;;;;5.78;5.18;;;9.20;99.90;;;;;;4993600;28;21524;-95
2023/01/11 02:04:10;;;;;;;5.72;4.82;;;9.30;99.90;;;;;;4999080;28;20057;-95
2023/01/11 02:06:36;;;;;;;6.80;5.03;;;9.30;99.90;;;;;;5008814;28;20099;-95
2023/01/11 02:09:19;;;;;;;6.10;4.82;;;9.30;99.90;;;;;;4998190;28;20834;-94
2023/01/11 02:11:46;;;;;;;7.25;4.75;;;9.30;99.90;;;;;;5011006;28;20046;-94
2023/01/11 02:14:15;;;;;;;5.88;4.78;;;9.20;99.90;;;;;;5012876;28;20042;-93
2023/01/11 02:16:40;;;;;;;6.25;5.15;;;9.40;99.90;;;;;;5013243;28;20069;-94
2023/01/11 02:19:11;;;;;;;7.00;5.25;;;9.40;99.90;;;;;;5011769;28;20148;-94
2023/01/11 02:22:13;;;;;;;6.13;5.10;;;9.40;99.90;;;;;;4985308;28;22015;-95
2023/01/11 02:24:52;;;;;;;8.20;5.05;;;9.40;99.90;;;;;;4991461;28;20068;-94
2023/01/11 02:27:32;;;;;;;5.88;4.95;;;9.60;99.90;;;;;;5013345;28;20113;-94
2023/01/11 02:30:23;;;;;;;5.13;4.63;;;9.50;99.90;;;;;;5013436;28;20424;-94
2023/01/11 02:33:17;;;;;;;7.20;4.43;;;9.40;99.90;;;;;;4995610;28;20050;-94
2023/01/11 02:36:03;;;;;;;7.40;4.45;;;9.50;99.90;;;;;;5002835;28;20062;-95
2023/01/11 02:39:05;;;;;;;5.35;4.28;;;9.50;99.90;;;;;;5004338;28;20045;-96
2023/01/11 02:45:09;;;;;;;4.35;3.95;;;9.60;99.90;;;;;;5001616;28;20050;-94
2023/01/11 02:47:56;;;;;;;5.60;4.15;;;9.60;99.90;;;;;;4989446;28;20077;-94
2023/01/11 02:50:43;;;;;;;5.78;4.32;;;9.60;99.90;;;;;;4997089;28;20050;-96
2023/01/11 02:53:22;;;;;;;5.63;3.97;;;9.70;99.90;;;;;;5012558;28;20119;-95
2023/01/11 02:55:52;;;;;;;4.47;3.75;;;10.50;99.90;;;;;;5012748;28;20042;-95
2023/01/11 02:58:21;;;;;;;4.75;3.80;;;9.70;99.90;;;;;;4997363;28;20046;-95
2023/01/11 03:00:48;;;;;;;5.18;3.97;;;9.70;99.90;;;;;;4992657;28;20092;-94
2023/01/11 03:03:20;;;;;;;4.00;3.60;;;9.70;99.90;;;;;;5004013;28;20593;-95
2023/01/11 03:06:00;;;;;;;5.63;3.35;;;9.80;99.90;;;;;;5013635;28;20050;-94
2023/01/11 03:08:55;;;;;;;4.90;3.85;;;9.50;99.90;;;;;;5024552;28;20030;-95
2023/01/11 03:15:05;;;;;;;3.47;3.17;;;9.80;99.90;;;;;;5018471;28;20042;-95
2023/01/11 03:17:59;;;;;;;4.93;3.28;;;9.80;99.90;;;;;;5019707;28;20034;-94
2023/01/11 03:20:40;;;;;;;3.17;2.85;;;9.80;99.90;;;;;;5014063;28;20046;-95
2023/01/11 03:23:11;;;;;;;3.47;2.83;;;10.40;99.90;;;;;;4980768;28;20069;-94
2023/01/11 03:25:46;;;;;;;3.22;2.92;;;10.20;99.90;;;;;;5001159;28;20081;-95
2023/01/11 03:28:38;;;;;;;3.35;2.83;;;9.90;99.90;;;;;;4998271;28;20037;-95
2023/01/11 03:31:35;;;;;;;3.17;2.80;;;9.90;99.90;;;;;;5004662;28;20058;-94
2023/01/11 03:34:28;;;;;;;2.90;2.70;;;9.10;99.90;;;;;;4994599;28;20301;-94
2023/01/11 03:37:38;;;;;;;3.08;2.38;;;9.90;99.90;;;;;;4989352;28;20041;-94
2023/01/11 03:40:19;;;;;;;3.00;2.10;;;10.00;99.90;;;;;;5013969;28;20062;-95
2023/01/11 03:45:53;;;;;;;2.17;1.90;;;10.00;99.90;;;;;;5025667;28;20086;-94
2023/01/11 03:48:28;;;;;;;3.78;1.70;;;10.00;99.90;;;;;;5011975;28;20092;-92
2023/01/11 03:50:56;;;;;;;2.28;1.70;;;9.80;99.90;;;;;;5009314;28;20518;-95
2023/01/11 03:53:30;;;;;;;1.48;1.38;;;10.00;99.90;;;;;;5021619;28;20171;-95
2023/01/11 03:55:57;;;;;;;1.52;1.25;;;9.90;99.90;;;;;;4995525;28;20045;-94
2023/01/11 03:58:25;;;;;;;2.58;1.58;;;10.50;99.90;;;;;;5010081;28;20081;-95
2023/01/11 04:00:55;;;;;;;1.73;1.52;;;10.10;99.90;;;;;;5015513;28;20560;-94
2023/01/11 04:03:20;;;;;;;2.08;1.70;;;10.10;99.90;;;;;;5012199;28;20044;-95
2023/01/11 04:05:53;;;;;;;2.33;1.80;;;10.10;99.90;;;;;;5015330;28;20049;-96
2023/01/11 04:08:18;;;;;;;;;;;10.00;99.90;;;;;;5019562;28;20042;-95
2023/01/11 04:10:44;;;;;;;3.28;1.80;;;10.20;99.90;;;;;;5027745;28;19928;-95
2023/01/11 04:13:10;;;;;;;1.92;1.67;;;10.30;99.90;;;;;;5026272;28;20061;-95
2023/01/11 04:15:36;;;;;;;2.15;1.70;;;10.20;99.90;;;;;;5007888;28;20042;-94
2023/01/11 04:18:05;;;;;;;3.03;1.50;;;10.20;99.90;;;;;;5008446;28;20038;-96
2023/01/11 04:20:34;;;;;;;1.77;1.67;;;10.40;99.90;;;;;;5009445;28;20805;-94
2023/01/11 04:23:21;;;;;;;2.20;1.60;;;10.30;99.90;;;;;;5010570;28;20057;-95
2023/01/11 04:25:47;;;;;;;2.13;1.40;;;9.90;99.90;;;;;;5014486;28;20042;-95
2023/01/11 04:28:12;;;;;;;2.03;1.60;;;9.40;99.90;;;;;;5007719;28;20042;-94
2023/01/11 04:30:44;;;;;;;3.13;1.50;;;11.00;99.90;;;;;;4997861;28;20038;-95
2023/01/11 04:33:21;;;;;;;1.70;1.60;;;10.60;99.90;;;;;;4993403;28;20064;-96
2023/01/11 04:36:07;;;;;;;1.40;1.30;;;10.20;99.90;;;;;;5011790;28;20049;-95
2023/01/11 04:38:34;;;;;;;3.05;1.92;;;10.70;99.90;;;;;;4996649;28;20057;-95
2023/01/11 04:43:45;;;;;;;3.42;2.50;;;10.50;99.90;;;;;;5013818;28;20046;-94
2023/01/11 04:46:11;;;;;;;6.57;3.20;;;10.30;99.90;;;;;;5029472;28;20045;-96
2023/01/11 04:48:39;;;;;;;7.25;3.40;;;10.40;99.90;;;;;;5002826;28;20046;-93
2023/01/11 04:51:08;;;;;;;7.40;3.67;;;10.40;99.90;;;;;;4989029;28;20046;-93
2023/01/11 04:53:35;;;;;;;4.55;3.30;;;10.40;99.90;;;;;;5012266;28;20052;-94
2023/01/11 04:56:02;;;;;;;6.95;3.92;;;10.40;99.90;;;;;;4996395;28;20049;-94
2023/01/11 04:58:32;;;;;;;6.18;4.03;;;10.60;99.90;;;;;;5012876;28;20041;-94
2023/01/11 05:01:07;;;;;;;7.30;4.15;;;10.40;99.90;;;;;;5013508;28;20042;-94
2023/01/11 05:03:33;;;;;;;7.88;4.00;;;10.40;99.90;;;;;;5010634;28;20053;-94
2023/01/11 05:06:01;;;;;;;6.47;4.50;;;10.40;99.90;;;;;;5019737;28;20403;-93
2023/01/11 05:08:28;;;;;;;8.85;4.20;;;9.50;99.90;;;;;;5009926;28;20269;-95
2023/01/11 05:10:59;;;;;;;9.85;4.25;;;10.50;99.90;;;;;;5011420;28;20129;-94
2023/01/11 05:13:40;;;;;;;13.40;4.03;;;10.50;99.90;;;;;;4992882;28;20053;-94
2023/01/11 05:16:13;;;;;;;10.05;4.22;;;10.50;99.90;;;;;;4994931;28;20042;-94
2023/01/11 05:18:40;;;;;;;10.27;3.13;;;10.50;99.90;;;;;;5011236;28;20038;-93
2023/01/11 05:21:07;;;;;;;14.85;4.55;;;10.50;99.90;;;;;;5025723;28;20052;-93
2023/01/11 05:23:36;;;;;;;10.98;3.20;;;10.60;99.90;;;;;;5011606;28;20053;-94
2023/01/11 05:26:04;;;;;;;12.65;4.25;;;10.50;99.90;;;;;;4995466;28;20135;-96
2023/01/11 05:28:40;;;;;;;16.27;4.30;;;10.50;99.90;;;;;;4995566;28;20053;-95
2023/01/11 05:31:06;;;;;;;15.55;3.40;;;11.30;99.90;;;;;;5011733;28;20064;-92
2023/01/11 05:33:34;;;;;;;18.80;3.67;;;10.50;99.90;;;;;;5009955;28;20050;-95
2023/01/11 05:36:01;;;;;;;13.73;3.28;;;11.60;99.90;;;;;;5012930;28;20085;-93
2023/01/11 05:38:28;;;;;;;15.52;3.17;;;11.20;99.90;;;;;;4995218;28;20050;-96
2023/01/11 05:40:58;;;;;;;16.23;3.45;;;10.50;99.90;;;;;;5012314;28;20408;-94
2023/01/11 05:43:25;;;;;;;17.08;3.67;;;10.40;99.90;;;;;;5013238;28;20046;-95
2023/01/11 05:45:53;;;;;;;16.77;3.40;;;10.50;99.90;;;;;;5014800;28;20060;-94
2023/01/11 05:48:19;;;;;;;12.98;3.30;;;10.40;99.90;;;;;;4999132;28;20044;-96
2023/01/11 05:50:52;;;;;;;19.77;4.22;;;10.10;99.90;;;;;;5026558;28;20077;-94
2023/01/11 05:53:20;;;;;;;16.52;3.90;;;10.40;99.90;;;;;;5013964;28;20046;-94
2023/01/11 05:55:56;;;;;;;17.33;3.15;;;10.30;99.90;;;;;;5011063;28;20048;-93
2023/01/11 05:58:24;;;;;;;15.95;3.80;;;10.30;99.90;;;;;;4997674;28;20501;-94
2023/01/11 06:00:51;;;;;;;16.85;3.70;;;10.40;99.90;;;;;;5009556;28;20050;-93
2023/01/11 06:03:18;;;;;;;14.95;3.85;;;11.10;99.90;;;;;;5024963;28;20105;-94
2023/01/11 06:05:47;;;;;;;16.30;3.40;;;10.30;99.90;;;;;;5000680;28;20050;-94
2023/01/11 06:08:13;;;;;;;18.13;3.13;;;10.40;99.90;;;;;;5016340;28;20064;-94
2023/01/11 06:10:40;;;;;;;16.58;3.55;;;10.30;99.90;;;;;;5016954;28;20052;-91
2023/01/11 06:16:03;;;;;;;16.70;3.63;;;10.20;99.90;;;;;;4993224;28;20054;-93
2023/01/11 06:18:33;;;;;;;21.42;3.90;;;10.30;99.90;;;;;;4986888;28;20446;-94
2023/01/11 06:21:00;;;;;;;17.50;4.18;;;11.20;99.90;;;;;;5005327;28;20499;-95
2023/01/11 06:23:27;;;;;;;17.35;3.53;;;10.20;99.90;;;;;;5015063;28;20053;-95
2023/01/11 06:25:55;;;;;;;18.13;4.60;;;10.30;99.90;;;;;;5011480;28;20057;-93
2023/01/11 06:28:21;;;;;;;18.40;3.88;;;10.30;99.90;;;;;;4995320;28;20053;-93
2023/01/11 06:30:54;;;;;;;14.98;3.50;;;10.20;99.90;;;;;;5015952;28;20046;-94
2023/01/11 06:33:32;;;;;;;15.93;3.67;;;10.20;99.90;;;;;;5015282;28;20050;-92
2023/01/11 06:36:05;;;;;;;15.30;3.60;;;10.70;99.90;;;;;;5020494;28;20080;-96
2023/01/11 06:38:30;;;;;;;18.55;4.03;;;9.60;99.90;;;;;;5006499;28;20038;-96
2023/01/11 06:40:59;;;;;;;18.90;3.78;;;10.40;99.90;;;;;;4995940;28;20048;-94
2023/01/11 06:43:26;;;;;;;22.10;4.80;;;10.00;99.90;;;;;;5001014;28;20065;-94
2023/01/11 06:45:52;;;;;;;20.13;4.72;;;10.80;99.90;;;;;;4994361;28;20048;-94
2023/01/11 06:48:19;;;;;;;19.08;3.63;;;10.90;99.90;;;;;;5011737;28;20049;-93
2023/01/11 06:50:49;;;;;;;17.98;4.68;;;9.90;99.90;;;;;;5012631;28;20077;-94
2023/01/11 06:53:15;;;;;;;22.02;5.13;;;9.90;99.90;;;;;;5011923;28;20064;-93
2023/01/11 06:55:41;;;;;;;19.23;4.35;;;9.80;99.90;;;;;;5005806;28;20046;-91
2023/01/11 06:58:07;;;;;;;17.67;4.07;;;10.70;99.90;;;;;;5000633;28;20053;-94
2023/01/11 07:00:33;;;;;;;21.25;5.90;;;9.80;99.90;;;;;;5007897;28;20051;-95
2023/01/11 07:03:06;;;;;;;18.88;3.95;;;9.80;99.90;;;;;;5007583;28;20046;-93
2023/01/11 07:05:33;;;;;;;20.15;4.05;;;10.20;99.90;;;;;;4973187;28;20049;-93
2023/01/11 07:07:59;;;;;;;25.95;4.22;;;9.70;99.90;;;;;;5005849;28;20045;-93
2023/01/11 07:10:24;;;;;;;24.83;4.95;;;9.70;99.90;;;;;;4974703;28;20042;-93
2023/01/11 07:12:50;;;;;;;21.58;4.60;;;9.70;99.90;;;;;;5014634;28;20057;-93
2023/01/11 07:15:16;;;;;;;20.15;5.20;;;9.70;99.90;;;;;;4973253;28;20137;-91
2023/01/11 07:17:42;;;;;;;22.63;4.25;;;9.60;99.90;;;;;;4987009;28;20145;-92
2023/01/11 07:20:08;;;;;;;19.40;5.13;;;9.70;99.90;;;;;;4987151;28;20049;-94
2023/01/11 07:22:35;;;;;;;21.50;4.28;;;9.60;99.90;;;;;;5010682;28;20042;-94
2023/01/11 07:25:02;;;;;;;24.27;4.43;;;9.70;99.90;;;;;;5009764;28;20456;-95
2023/01/11 07:27:28;;;;;;;22.63;5.38;;;10.40;99.90;;;;;;5010997;28;20050;-94
2023/01/11 07:29:53;;;;;;;28.92;5.30;;;9.40;99.90;;;;;;5011361;28;20037;-95
2023/01/11 07:32:19;;;;;;;22.33;4.78;;;9.60;99.90;;;;;;5005591;28;20077;-95
2023/01/11 07:34:45;;;;;;;23.45;4.05;;;9.70;99.90;;;;;;4999081;28;20076;-92
2023/01/11 07:37:12;;;;;;;20.45;4.00;;;9.70;99.90;;;;;;4975957;28;20057;-93
2023/01/11 07:39:37;;;;;;;26.17;4.90;;;10.40;99.90;;;;;;4989483;28;20140;-91
2023/01/11 07:44:51;;;;;;;25.45;4.22;;;9.70;99.90;;;;;;4990129;28;20054;-94
2023/01/11 07:47:16;;;;;;;25.23;5.07;;;9.70;99.90;;;;;;4989707;28;20046;-93
2023/01/11 07:49:42;;;;;;;20.60;4.30;;;9.70;99.90;;;;;;4993223;28;20038;-93
2023/01/11 07:52:08;;;;;;;19.35;3.40;;;9.70;99.90;;;;;;4973294;28;20417;-94
2023/01/11 07:54:33;;;;;;;17.60;3.92;;;9.70;99.90;;;;;;4989637;28;20464;-92
2023/01/11 07:56:59;;;;;;;18.27;3.80;;;9.60;99.90;;;;;;4990751;28;20074;-91
2023/01/11 07:59:25;;;;;;;17.88;3.60;;;9.60;99.90;;;;;;5008657;28;20038;-93
2023/01/11 08:01:50;;;;;;;22.73;3.90;;;10.10;99.90;;;;;;4992340;28;20054;-93
2023/01/11 08:04:16;;;;;;;21.08;4.43;;;9.70;99.90;;;;;;4994708;28;20042;-92
2023/01/11 08:06:41;;;;;;;21.85;5.50;;;9.50;99.90;;;;;;4993873;28;20042;-91
2023/01/11 08:09:08;;;;;;;21.15;4.50;;;9.90;99.90;;;;;;4992911;28;20125;-91
2023/01/11 08:17:05;;;;;;;18.45;3.65;;;9.30;99.90;;;;;;5012744;28;20077;-93
2023/01/11 08:19:31;;;;;;;18.02;2.97;;;9.30;99.90;;;;;;5005219;28;20148;-95
2023/01/11 08:21:57;;;;;;;15.93;3.08;;;9.20;99.90;;;;;;4999291;28;20131;-94
2023/01/11 08:24:24;;;;;;;13.00;2.83;;;9.10;99.90;;;;;;5036619;28;20041;-95
2023/01/11 08:26:53;;;;;;;11.73;2.70;;;9.50;99.90;;;;;;5004476;28;20029;-95
2023/01/11 08:29:19;;;;;;;14.13;3.10;;;8.90;99.90;;;;;;4998575;28;20081;-94
2023/01/11 08:31:46;;;;;;;23.63;2.97;;;9.10;99.90;;;;;;4997390;28;20073;-92
2023/01/11 08:34:12;;;;;;;10.88;2.30;;;9.40;99.90;;;;;;4995670;28;20058;-93
2023/01/11 08:36:38;;;;;;;10.18;2.42;;;9.00;99.90;;;;;;5011850;28;20048;-94
2023/01/11 08:39:03;;;;;;;12.98;2.80;;;9.00;99.90;;;;;;4996994;28;20081;-94
2023/01/11 08:41:31;;;;;;;13.02;2.72;;;8.90;99.90;;;;;;4995434;28;20220;-93
2023/01/11 08:43:57;;;;;;;10.05;2.67;;;8.90;99.90;;;;;;4996341;28;20132;-95
2023/01/11 08:46:24;;;;;;;13.57;2.60;;;9.40;99.90;;;;;;5012551;28;20496;-93
2023/01/11 08:48:49;;;;;;;12.13;1.98;;;8.90;99.90;;;;;;4996106;28;20050;-93
2023/01/11 08:51:17;;;;;;;11.75;2.40;;;8.90;99.90;;;;;;5029414;28;20068;-93
2023/01/11 08:53:42;;;;;;;14.98;2.70;;;8.70;99.90;;;;;;4995794;28;20045;-92
2023/01/11 08:56:08;;;;;;;14.27;2.80;;;8.90;99.90;;;;;;5027802;28;20041;-92
2023/01/11 08:58:34;;;;;;;11.57;2.85;;;8.90;99.90;;;;;;5028652;28;20038;-91
2023/01/11 09:01:01;;;;;;;15.65;3.35;;;8.80;99.90;;;;;;4994893;28;20037;-89
2023/01/11 09:03:30;;;;;;;15.07;2.65;;;8.90;99.90;;;;;;5011438;28;20046;-89
2023/01/11 09:05:56;;;;;;;11.68;2.28;;;8.90;99.90;;;;;;5009676;28;20120;-85
2023/01/11 09:08:22;;;;;;;10.73;3.05;;;8.80;99.90;;;;;;5010842;28;20042;-87
2023/01/11 09:10:48;;;;;;;10.43;3.00;;;8.80;99.90;;;;;;5009506;28;20073;-87
2023/01/11 09:13:14;;;;;;;16.27;3.00;;;8.80;99.90;;;;;;5008212;28;20081;-88
2023/01/11 09:15:39;;;;;;;15.73;3.58;;;9.00;99.90;;;;;;5009229;28;20081;-89
2023/01/11 09:18:05;;;;;;;13.35;3.35;;;8.70;99.90;;;;;;5009518;28;20069;-88
2023/01/11 09:20:31;;;;;;;12.02;2.78;;;8.80;99.90;;;;;;5009147;28;20092;-87
2023/01/11 09:22:56;;;;;;;13.98;3.45;;;8.80;99.90;;;;;;5009375;28;20049;-87
2023/01/11 09:25:23;;;;;;;12.25;3.30;;;9.20;99.90;;;;;;5008840;28;20495;-87
2023/01/11 09:27:50;;;;;;;17.30;3.03;;;8.70;99.90;;;;;;5025051;28;20096;-87
2023/01/11 09:30:18;;;;;;;17.40;3.08;;;8.70;99.90;;;;;;4991641;28;20042;-86
2023/01/11 09:32:45;;;;;;;16.40;3.20;;;8.70;99.90;;;;;;5007096;28;20128;-85
2023/01/11 09:35:10;;;;;;;12.43;3.05;;;8.70;99.90;;;;;;5009070;28;20050;-87
2023/01/11 09:37:40;;;;;;;17.38;3.45;;;8.70;99.90;;;;;;5008498;28;20196;-88
2023/01/11 09:40:10;;;;;;;12.90;3.10;;;8.70;99.90;;;;;;5007427;28;20053;-87
2023/01/11 09:42:39;;;;;;;17.20;3.28;;;8.60;99.90;;;;;;5009991;28;20536;-88
2023/01/11 09:45:21;;;;;;;9.93;2.80;;;8.60;99.90;;;;;;5006328;28;20088;-86
2023/01/11 09:48:16;;;;;;;13.32;2.88;;;8.60;99.90;;;;;;4973182;28;20373;-87
2023/01/11 09:50:46;;;;;;;15.48;3.03;;;8.50;99.90;;;;;;4981157;28;20049;-84
2023/01/11 09:53:23;;;;;;;15.60;3.17;;;8.50;99.90;;;;;;5009345;28;20444;-87
2023/01/11 09:55:51;;;;;;;13.77;3.38;;;8.50;99.90;;;;;;5009042;28;20457;-87
2023/01/11 09:58:37;;;;;;;9.68;2.33;;;8.50;99.90;;;;;;5006344;28;20050;-87
2023/01/11 10:01:20;;;;;;;12.15;3.00;;;8.50;99.90;;;;;;5007682;28;20058;-87
2023/01/11 10:04:20;;;;;;;18.10;3.45;;;8.60;99.90;;;;;;5009086;28;20092;-87
2023/01/11 10:07:13;;;;;;;11.13;3.05;;;8.50;99.90;;;;;;5007070;28;20054;-87
2023/01/11 10:10:13;;;;;;;14.98;3.03;;;8.60;99.90;;;;;;5009042;28;20033;-89
2023/01/11 10:13:04;;;;;;;14.90;3.30;;;8.60;99.90;;;;;;5007274;28;20057;-89
2023/01/11 10:15:43;;;;;;;11.48;2.70;;;8.80;99.90;;;;;;5009790;28;20137;-88
2023/01/11 10:18:34;;;;;;;18.95;3.70;;;8.80;99.90;;;;;;5009172;28;20092;-85
2023/01/11 10:21:13;;;;;;;26.88;3.50;;;8.80;99.90;;;;;;5006057;28;20539;-86
2023/01/11 10:23:49;;;;;;;20.90;3.85;;;8.90;99.90;;;;;;5006191;28;20045;-87
2023/01/11 10:26:27;;;;;;;12.55;3.13;;;9.20;99.90;;;;;;5009650;28;20046;-88
2023/01/11 10:32:24;;;;;;;26.70;3.38;;;9.10;99.90;;;;;;5005281;28;20057;-89
2023/01/11 10:35:16;;;;;;;12.47;4.73;;;9.20;99.90;;;;;;5005869;28;20492;-87
2023/01/11 10:41:14;;;;;;;20.05;3.88;;;9.30;99.90;;;;;;5007420;28;20504;-88
2023/01/11 10:43:48;;;;;;;13.73;3.63;;;9.40;99.90;;;;;;5011381;28;20058;-95
2023/01/11 10:46:20;;;;;;;13.13;3.90;;;9.50;99.90;;;;;;5010701;28;20073;-90
2023/01/11 10:48:55;;;;;;;16.70;3.08;;;9.60;99.90;;;;;;5011703;28;20587;-95
2023/01/11 10:51:36;;;;;;;15.77;3.47;;;9.80;99.90;;;;;;5010476;28;20045;-95
2023/01/11 10:54:32;;;;;;;12.63;3.40;;;9.70;99.90;;;;;;5012229;28;20079;-95
2023/01/11 10:57:35;;;;;;;13.30;2.80;;;9.60;99.90;;;;;;5018452;28;20046;-95
2023/01/11 11:00:07;;;;;;;12.80;3.42;;;9.60;99.90;;;;;;5012592;28;20049;-94
2023/01/11 11:03:00;;;;;;;11.90;3.83;;;9.50;99.90;;;;;;5010791;28;20169;-95
2023/01/11 11:05:26;;;;;;;;;;;9.50;99.90;;;;;;4991603;28;20145;-94
2023/01/11 11:08:28;;;;;;;14.55;3.10;;;9.40;99.90;;;;;;4991483;28;20340;-95
2023/01/11 11:11:07;;;;;;;11.10;2.75;;;9.40;99.90;;;;;;5013023;28;20052;-94
2023/01/11 11:14:07;;;;;;;11.23;3.17;;;9.40;99.90;;;;;;5010665;28;20137;-95
2023/01/11 11:16:59;;;;;;;11.65;2.92;;;9.40;99.90;;;;;;5001399;28;20057;-93
2023/01/11 11:19:31;;;;;;;18.30;4.65;;;9.50;99.90;;;;;;4999545;28;20053;-92
2023/01/11 11:22:00;;;;;;;13.90;2.85;;;9.50;99.90;;;;;;4993550;28;20135;-94
2023/01/11 11:24:52;;;;;;;11.68;2.80;;;9.60;99.90;;;;;;4993158;28;20054;-93
2023/01/11 11:27:31;;;;;;;15.60;3.42;;;9.60;99.90;;;;;;4985649;28;20046;-93
2023/01/11 11:29:57;;;;;;;13.85;2.67;;;9.60;99.90;;;;;;5025889;28;20038;-93
2023/01/11 11:32:32;;;;;;;14.57;3.00;;;9.60;99.90;;;;;;4994640;28;20045;-93
2023/01/11 11:34:58;;;;;;;15.80;3.05;;;9.70;99.90;;;;;;4991162;28;20045;-94
2023/01/11 11:37:34;;;;;;;14.75;2.92;;;9.70;99.90;;;;;;5024564;28;20064;-91
2023/01/11 11:40:01;;;;;;;9.50;3.08;;;9.80;99.90;;;;;;5010844;28;20048;-96
2023/01/11 11:42:26;;;;;;;12.15;3.33;;;9.80;99.90;;;;;;5009998;28;20053;-92
2023/01/11 11:45:07;;;;;;;13.90;3.92;;;10.20;99.90;;;;;;5008628;28;20049;-90
2023/01/11 11:47:33;;;;;;;14.73;3.10;;;9.80;99.90;;;;;;5003882;28;20046;-89
2023/01/11 11:50:17;;;;;;;17.52;3.38;;;9.80;99.90;;;;;;4988607;28;20281;-92
2023/01/11 11:52:44;;;;;;;16.60;3.95;;;9.80;99.90;;;;;;5011573;28;20041;-90
2023/01/11 11:55:13;;;;;;;11.35;2.65;;;9.80;99.90;;;;;;4997453;28;20042;-93
2023/01/11 11:57:42;;;;;;;13.38;3.08;;;9.90;99.90;;;;;;4996963;28;20491;-92
2023/01/11 12:00:21;;;;;;;16.70;3.20;;;9.90;99.90;;;;;;4997627;28;20084;-90
2023/01/11 12:03:06;;;;;;;15.60;3.50;;;9.90;99.90;;;;;;5012847;28;20054;-92
2023/01/11 12:05:32;;;;;;;15.75;2.75;;;9.90;99.90;;;;;;5002951;28;20042;-93
2023/01/11 12:08:01;;;;;;;16.23;3.25;;;9.90;99.90;;;;;;4997687;28;20079;-93
2023/01/11 12:10:28;;;;;;;13.32;3.50;;;9.50;99.90;;;;;;4996686;28;20475;-91
2023/01/11 12:13:00;;;;;;;16.67;2.80;;;9.80;99.90;;;;;;4981819;28;20046;-90
2023/01/11 12:15:28;;;;;;;16.40;3.00;;;9.70;99.90;;;;;;4976780;28;20504;-92
2023/01/11 12:18:13;;;;;;;12.98;3.17;;;9.80;99.90;;;;;;4992827;28;20380;-88
2023/01/11 12:20:41;;;;;;;13.18;2.80;;;10.30;99.90;;;;;;5011266;28;20124;-88
2023/01/11 12:23:17;;;;;;;11.95;2.83;;;9.80;99.90;;;;;;5011465;28;20050;-88
2023/01/11 12:26:01;;;;;;;15.65;3.20;;;9.90;99.90;;;;;;5012916;28;20053;-90
2023/01/11 12:28:53;;;;;;;16.85;2.95;;;9.90;99.90;;;;;;5008960;28;20425;-90
2023/01/11 12:31:31;;;;;;;12.02;2.22;;;9.30;99.90;;;;;;5000272;28;20045;-90
2023/01/11 12:34:33;;;;;;;12.95;2.63;;;9.90;99.90;;;;;;4995807;28;20404;-91
2023/01/11 12:37:22;;;;;;;15.63;3.05;;;9.80;99.90;;;;;;5011298;28;20068;-92
2023/01/11 12:40:21;;;;;;;12.23;2.70;;;9.80;99.90;;;;;;5011708;28;20054;-89
2023/01/11 12:43:26;;;;;;;9.15;2.63;;;9.90;99.90;;;;;;4995566;28;20056;-90
2023/01/11 12:46:20;;;;;;;14.63;3.20;;;9.90;99.90;;;;;;5003265;28;20473;-93
2023/01/11 12:49:00;;;;;;;15.23;3.08;;;10.00;99.90;;;;;;5007726;28;20088;-93
2023/01/11 12:51:32;;;;;;;13.88;2.60;;;10.00;99.90;;;;;;5011543;28;20046;-92
2023/01/11 12:54:22;;;;;;;10.38;2.88;;;10.10;99.90;;;;;;5007901;28;20185;-91
2023/01/11 12:57:22;;;;;;;16.55;2.88;;;10.00;99.90;;;;;;4991871;28;20160;-89
2023/01/11 13:00:12;;;;;;;10.52;2.58;;;10.00;99.90;;;;;;4990833;28;20050;-92
2023/01/11 13:03:15;;;;;;;15.93;2.80;;;9.90;99.90;;;;;;4990872;28;20061;-88
2023/01/11 13:06:14;;;;;;;17.88;3.42;;;9.90;99.90;;;;;;5009900;28;20081;-91
2023/01/11 13:09:26;;;;;;;15.30;3.20;;;9.80;99.90;;;;;;5012582;28;20112;-93
2023/01/11 13:12:06;;;;;;;12.25;2.50;;;9.80;99.90;;;;;;4994249;28;20064;-92
2023/01/11 13:14:54;;;;;;;10.65;3.60;;;9.80;99.90;;;;;;5010161;28;20211;-88
2023/01/11 13:17:37;;;;;;;13.00;2.58;;;9.90;99.90;;;;;;5011859;28;20042;-90
2023/01/11 13:20:37;;;;;;;17.70;3.85;;;10.00;99.90;;;;;;5009626;28;20033;-92
2023/01/11 13:23:19;;;;;;;17.15;2.95;;;10.10;99.90;;;;;;5007655;28;20046;-91
2023/01/11 13:25:47;;;;;;;13.90;3.67;;;10.50;99.90;;;;;;4993164;28;20132;-89
2023/01/11 13:28:35;;;;;;;15.63;3.03;;;10.10;99.90;;;;;;4994630;28;20073;-89
2023/01/11 13:31:04;;;;;;;14.38;3.13;;;10.10;99.90;;;;;;4994215;28;20050;-88
2023/01/11 13:33:31;;;;;;;12.60;3.25;;;10.00;99.90;;;;;;4994259;28;20108;-90
2023/01/11 13:36:05;;;;;;;17.35;3.42;;;10.00;99.90;;;;;;4994710;28;20050;-88
2023/01/11 13:38:46;;;;;;;15.85;3.67;;;9.90;99.90;;;;;;4994452;28;20050;-90
2023/01/11 13:41:26;;;;;;;18.02;3.30;;;9.90;99.90;;;;;;4977049;28;20042;-90
2023/01/11 13:44:18;;;;;;;13.52;3.33;;;9.90;99.90;;;;;;4974658;28;20046;-88
2023/01/11 13:47:08;;;;;;;21.83;4.55;;;9.90;99.90;;;;;;4989899;28;20038;-88
2023/01/11 13:49:55;;;;;;;9.57;2.65;;;9.90;99.90;;;;;;4973599;28;20042;-88
2023/01/11 13:52:52;;;;;;;14.68;2.67;;;9.90;99.90;;;;;;4990648;28;20787;-86
2023/01/11 13:55:56;;;;;;;12.32;2.85;;;9.90;99.90;;;;;;5001752;28;20756;-89
2023/01/11 13:58:30;;;;;;;10.57;2.45;;;10.00;99.90;;;;;;5009230;28;20145;-89
2023/01/11 14:01:13;;;;;;;18.30;3.20;;;9.90;99.90;;;;;;5006481;28;20092;-87
2023/01/11 14:03:46;;;;;;;;;;;9.60;99.90;;;;;;5007743;28;20511;-88
2023/01/11 14:06:15;;;;;;;13.30;3.35;;;9.90;99.90;;;;;;5007391;28;19925;-90